Time;durP1;ratioP1;P1;durP2;ratioP2;P2;SDS_P1;SDS_P2;PMS_P1;PMS_P2;Temp;Humidity;BMP_temperature;BMP_pressure;BME280_temperature;BME280_humidity;BME280_pressure;Samples;Min_cycle;Max_cycle;Signal;HPM_P1;HPM_P2
2023/12/26 00:00:16;;;;;;;1999.90;999.90;;;11.50;99.90;;;;;;5028787;28;20432;-70
2023/12/26 00:02:42;;;;;;;1999.90;999.90;;;11.50;99.90;;;;;;5025889;28;20046;-70
2023/12/26 00:05:08;;;;;;;1999.90;999.90;;;11.50;99.90;;;;;;5027601;28;20065;-70
2023/12/26 00:07:33;;;;;;;1999.90;999.90;;;11.50;99.90;;;;;;5028462;28;20029;-70
2023/12/26 00:09:59;;;;;;;1999.90;999.90;;;11.40;99.90;;;;;;5032071;28;20044;-70
2023/12/26 00:12:24;;;;;;;1999.90;999.90;;;11.40;99.90;;;;;;5027985;28;20087;-69
2023/12/26 00:14:51;;;;;;;1999.90;999.90;;;11.40;99.90;;;;;;5039962;28;20052;-69
2023/12/26 00:17:17;;;;;;;1999.90;999.90;;;11.40;99.90;;;;;;5031616;28;20076;-70
2023/12/26 00:19:42;;;;;;;1999.90;999.90;;;11.40;99.90;;;;;;5032646;28;20106;-70
2023/12/26 00:22:08;;;;;;;1999.90;999.90;;;11.40;99.90;;;;;;5035050;28;20041;-69
2023/12/26 00:24:34;;;;;;;1999.90;999.90;;;11.40;99.90;;;;;;5036344;28;20028;-70
2023/12/26 00:26:59;;;;;;;1999.90;999.90;;;11.30;99.90;;;;;;5036780;28;20025;-70
2023/12/26 00:29:25;;;;;;;1999.90;999.90;;;11.40;99.90;;;;;;5035747;28;20032;-70
2023/12/26 00:31:51;;;;;;;1999.90;999.90;;;11.30;99.90;;;;;;5036403;28;20025;-70
2023/12/26 00:34:16;;;;;;;1999.90;999.90;;;11.40;99.90;;;;;;5034245;28;20032;-70
2023/12/26 00:36:42;;;;;;;1999.90;999.90;;;11.40;99.90;;;;;;5036325;28;20026;-70
2023/12/26 00:39:08;;;;;;;1999.90;999.90;;;11.40;99.90;;;;;;5035891;28;20022;-70
2023/12/26 00:41:33;;;;;;;1999.90;999.90;;;11.40;99.90;;;;;;5031361;28;20046;-69
2023/12/26 00:43:59;;;;;;;1999.90;999.90;;;11.40;99.90;;;;;;5033408;28;20013;-70
2023/12/26 00:46:25;;;;;;;1999.90;999.90;;;11.40;99.90;;;;;;5034710;28;20033;-70
2023/12/26 00:48:50;;;;;;;1999.90;999.90;;;11.40;99.90;;;;;;5033803;28;20021;-70
2023/12/26 00:51:16;;;;;;;1999.90;999.90;;;11.50;99.90;;;;;;5035955;28;20037;-70
2023/12/26 00:53:42;;;;;;;1999.90;999.90;;;11.50;99.90;;;;;;5033544;28;20112;-70
2023/12/26 00:56:07;;;;;;;1999.90;999.90;;;11.50;99.90;;;;;;5035533;28;20060;-70
2023/12/26 00:58:33;;;;;;;1999.90;999.90;;;11.50;99.90;;;;;;5035041;28;20462;-70
2023/12/26 01:00:59;;;;;;;1999.90;999.90;;;11.50;99.90;;;;;;5035612;28;20022;-70
2023/12/26 01:03:25;;;;;;;1999.90;999.90;;;11.50;99.90;;;;;;5027321;28;20025;-70
2023/12/26 01:05:51;;;;;;;1999.90;999.90;;;11.50;99.90;;;;;;5029980;28;20029;-70
2023/12/26 01:08:18;;;;;;;1999.90;999.90;;;11.50;99.90;;;;;;5029422;28;20034;-70
2023/12/26 01:10:44;;;;;;;1999.90;999.90;;;11.50;99.90;;;;;;5033986;28;20045;-70
2023/12/26 01:13:10;;;;;;;1999.90;999.90;;;11.50;99.90;;;;;;5033531;28;20030;-70
2023/12/26 01:15:36;;;;;;;1999.90;999.90;;;11.50;99.90;;;;;;5034854;28;20036;-70
2023/12/26 01:18:02;;;;;;;1999.90;999.90;;;11.50;99.90;;;;;;5035237;28;20025;-70
2023/12/26 01:20:29;;;;;;;1999.90;999.90;;;11.50;99.90;;;;;;5034526;28;20052;-70
2023/12/26 01:22:55;;;;;;;1999.90;999.90;;;11.50;99.90;;;;;;5026865;28;20308;-70
2023/12/26 01:25:21;;;;;;;1999.90;999.90;;;11.50;99.90;;;;;;5035437;28;20029;-70
2023/12/26 01:27:47;;;;;;;1999.90;999.90;;;11.50;99.90;;;;;;5032291;28;20113;-70
2023/12/26 01:30:14;;;;;;;1999.90;999.90;;;11.50;99.90;;;;;;5034514;28;20029;-70
2023/12/26 01:32:39;;;;;;;1999.90;999.90;;;11.40;99.90;;;;;;5034257;28;20105;-70
2023/12/26 01:35:06;;;;;;;1999.90;999.90;;;11.50;99.90;;;;;;5033818;28;20383;-70
2023/12/26 01:37:32;;;;;;;1999.90;999.90;;;11.50;99.90;;;;;;5034439;28;20022;-70
2023/12/26 01:39:57;;;;;;;1999.90;999.90;;;11.40;99.90;;;;;;5030012;28;20040;-70
2023/12/26 01:42:23;;;;;;;1999.90;999.90;;;11.40;99.90;;;;;;5028349;28;20045;-70
2023/12/26 01:44:49;;;;;;;1999.90;999.90;;;11.50;99.90;;;;;;5034343;28;20371;-69
2023/12/26 01:47:16;;;;;;;1999.90;999.90;;;11.40;99.90;;;;;;5031447;28;20033;-70
2023/12/26 01:49:43;;;;;;;1999.90;999.90;;;11.40;99.90;;;;;;5033913;28;20029;-70
2023/12/26 01:52:09;;;;;;;1999.90;999.90;;;11.40;99.90;;;;;;5027587;28;20033;-70
2023/12/26 01:54:37;;;;;;;1999.90;999.90;;;11.40;99.90;;;;;;5034889;28;20479;-70
2023/12/26 01:57:06;;;;;;;1999.90;999.90;;;11.40;99.90;;;;;;5032091;28;20052;-70
2023/12/26 01:59:33;;;;;;;1999.90;999.90;;;11.40;99.90;;;;;;5034809;28;20026;-70
2023/12/26 02:01:59;;;;;;;;;;;11.40;99.90;;;;;;5034236;28;20328;-70
2023/12/26 02:04:25;;;;;;;1999.90;999.90;;;11.40;99.90;;;;;;5034195;28;19909;-70
2023/12/26 02:06:51;;;;;;;1999.90;999.90;;;11.30;99.90;;;;;;5032715;28;20038;-70
2023/12/26 02:09:16;;;;;;;1999.90;999.90;;;11.30;99.90;;;;;;5034396;28;20045;-70
2023/12/26 02:11:43;;;;;;;1999.90;999.90;;;11.20;99.90;;;;;;5034152;28;20128;-70
2023/12/26 02:14:12;;;;;;;1999.90;999.90;;;11.10;99.90;;;;;;5032040;28;20029;-70
2023/12/26 02:16:41;;;;;;;1999.90;999.90;;;11.00;99.90;;;;;;5029655;28;20357;-69
2023/12/26 02:19:06;;;;;;;1999.90;999.90;;;11.00;99.90;;;;;;5030245;28;20058;-69
2023/12/26 02:21:32;;;;;;;1999.90;999.90;;;11.00;99.90;;;;;;5031778;28;20052;-70
2023/12/26 02:23:58;;;;;;;1999.90;999.90;;;11.00;99.90;;;;;;5032721;28;20017;-70
2023/12/26 02:26:27;;;;;;;1999.90;999.90;;;11.00;99.90;;;;;;5028426;28;20025;-70
2023/12/26 02:28:53;;;;;;;1999.90;999.90;;;11.00;99.90;;;;;;5029732;28;20672;-70
2023/12/26 02:31:21;;;;;;;1999.90;999.90;;;11.00;99.90;;;;;;5030126;28;20029;-70
2023/12/26 02:33:47;;;;;;;1999.90;999.90;;;11.00;99.90;;;;;;5032477;28;20049;-70
2023/12/26 02:36:16;;;;;;;1999.90;999.90;;;10.90;99.90;;;;;;5026265;28;20040;-70
2023/12/26 02:38:42;;;;;;;1999.90;999.90;;;10.90;99.90;;;;;;5030966;28;20100;-70
2023/12/26 02:41:07;;;;;;;1999.90;999.90;;;10.90;99.90;;;;;;5025142;28;20109;-70
2023/12/26 02:43:33;;;;;;;1999.90;999.90;;;10.90;99.90;;;;;;5032761;28;20026;-69
2023/12/26 02:45:59;;;;;;;1999.90;999.90;;;11.00;99.90;;;;;;5031528;28;20025;-70
2023/12/26 02:48:25;;;;;;;1999.90;999.90;;;10.90;99.90;;;;;;5030169;28;20032;-70
2023/12/26 02:50:51;;;;;;;1999.90;999.90;;;10.90;99.90;;;;;;5025715;28;20053;-69
2023/12/26 02:53:17;;;;;;;1999.90;999.90;;;10.90;99.90;;;;;;5030744;28;20030;-70
2023/12/26 02:55:43;;;;;;;1999.90;999.90;;;10.80;99.90;;;;;;5031989;28;20134;-69
2023/12/26 02:58:09;;;;;;;1999.90;999.90;;;10.80;99.90;;;;;;5022868;28;20028;-69
2023/12/26 03:00:35;;;;;;;1999.90;999.90;;;10.90;99.90;;;;;;5035012;28;20273;-69
2023/12/26 03:03:01;;;;;;;1999.90;999.90;;;10.90;99.90;;;;;;5029516;28;20033;-70
2023/12/26 03:05:27;;;;;;;1999.90;999.90;;;10.80;99.90;;;;;;5037534;28;20037;-70
2023/12/26 03:07:52;;;;;;;1999.90;999.90;;;10.80;99.90;;;;;;5029752;28;20120;-70
2023/12/26 03:10:18;;;;;;;1999.90;999.90;;;10.80;99.90;;;;;;5033727;28;20064;-69
2023/12/26 03:12:44;;;;;;;1999.90;999.90;;;10.70;99.90;;;;;;5029539;28;20096;-70
2023/12/26 03:15:11;;;;;;;1999.90;999.90;;;10.70;99.90;;;;;;5031609;28;20026;-70
2023/12/26 03:17:37;;;;;;;1999.90;999.90;;;10.60;99.90;;;;;;5036384;28;20044;-70
2023/12/26 03:20:03;;;;;;;1999.90;999.90;;;10.60;99.90;;;;;;5032912;28;20732;-70
2023/12/26 03:22:29;;;;;;;1999.90;999.90;;;10.50;99.90;;;;;;5026420;28;20641;-71
2023/12/26 03:24:54;;;;;;;1999.90;999.90;;;10.40;99.90;;;;;;5032735;28;20030;-69
2023/12/26 03:27:21;;;;;;;1999.90;999.90;;;10.40;99.90;;;;;;5032252;28;20316;-70
2023/12/26 03:29:47;;;;;;;1999.90;999.90;;;10.40;99.90;;;;;;5029395;28;20060;-69
2023/12/26 03:32:15;;;;;;;1999.90;999.90;;;10.30;99.90;;;;;;5032150;28;20065;-69
2023/12/26 03:34:41;;;;;;;1999.90;999.90;;;10.30;99.90;;;;;;5032777;28;20443;-70
2023/12/26 03:37:07;;;;;;;1999.90;999.90;;;10.20;99.90;;;;;;5032214;28;20025;-69
2023/12/26 03:39:33;;;;;;;1999.90;999.90;;;10.20;99.90;;;;;;5032991;28;20354;-70
2023/12/26 03:41:58;;;;;;;1999.90;999.90;;;10.20;99.90;;;;;;5027555;28;20053;-69
2023/12/26 03:44:24;;;;;;;1999.90;999.90;;;10.20;99.90;;;;;;5022313;28;20064;-72
2023/12/26 03:46:50;;;;;;;1999.90;999.90;;;10.10;99.90;;;;;;5032438;28;20029;-69
2023/12/26 03:49:16;;;;;;;1999.90;999.90;;;10.10;99.90;;;;;;5028751;28;20334;-70
2023/12/26 03:51:44;;;;;;;1999.90;999.90;;;10.00;99.90;;;;;;5025342;28;20057;-70
2023/12/26 03:54:10;;;;;;;1999.90;999.90;;;9.90;99.90;;;;;;5036463;28;20033;-70
2023/12/26 03:56:35;;;;;;;1999.90;999.90;;;9.90;99.90;;;;;;5030602;28;20033;-69
2023/12/26 03:59:02;;;;;;;1999.90;999.90;;;9.90;99.90;;;;;;5028517;28;20025;-70
2023/12/26 04:01:27;;;;;;;1999.90;999.90;;;9.80;99.90;;;;;;5031533;28;20020;-69
2023/12/26 04:03:53;;;;;;;1999.90;999.90;;;9.80;99.90;;;;;;5032657;28;20075;-69
2023/12/26 04:06:20;;;;;;;1999.90;999.90;;;9.80;99.90;;;;;;5035338;28;20113;-69
2023/12/26 04:08:46;;;;;;;1999.90;999.90;;;9.90;99.90;;;;;;5031998;28;20479;-69
2023/12/26 04:11:12;;;;;;;1999.90;999.90;;;10.00;99.90;;;;;;5030927;28;20375;-70
2023/12/26 04:13:38;;;;;;;1999.90;999.90;;;9.90;99.90;;;;;;5029158;28;20310;-70
2023/12/26 04:16:04;;;;;;;1999.90;999.90;;;10.00;99.90;;;;;;5032667;28;20057;-69
2023/12/26 04:18:30;;;;;;;1999.90;999.90;;;10.00;99.90;;;;;;5033645;28;20028;-69
2023/12/26 04:20:56;;;;;;;1999.90;999.90;;;10.00;99.90;;;;;;5036400;28;20021;-69
2023/12/26 04:23:22;;;;;;;1999.90;999.90;;;9.90;99.90;;;;;;5022841;28;20274;-70
2023/12/26 04:25:48;;;;;;;1999.90;999.90;;;9.80;99.90;;;;;;5032608;28;20033;-70
2023/12/26 04:28:14;;;;;;;1999.90;999.90;;;9.80;99.90;;;;;;5032165;28;20060;-69
2023/12/26 04:30:41;;;;;;;1999.90;999.90;;;9.70;99.90;;;;;;5034085;28;20038;-69
2023/12/26 04:33:07;;;;;;;1999.90;999.90;;;9.70;99.90;;;;;;5035850;28;20401;-69
2023/12/26 04:35:36;;;;;;;1999.90;999.90;;;9.70;99.90;;;;;;5035457;28;20029;-69
2023/12/26 04:38:03;;;;;;;1999.90;999.90;;;9.60;99.90;;;;;;5036251;28;20021;-70
2023/12/26 04:40:29;;;;;;;1999.90;999.90;;;9.60;99.90;;;;;;5035177;28;20463;-69
2023/12/26 04:42:57;;;;;;;1999.90;999.90;;;9.50;99.90;;;;;;5035835;28;20083;-70
2023/12/26 04:45:23;;;;;;;1999.90;999.90;;;9.60;99.90;;;;;;5035501;28;20065;-70
2023/12/26 04:47:51;;;;;;;1999.90;999.90;;;9.50;99.90;;;;;;5035744;28;20095;-69
2023/12/26 04:50:17;;;;;;;1999.90;999.90;;;9.50;99.90;;;;;;5033740;28;20033;-70
2023/12/26 04:52:43;;;;;;;1999.90;999.90;;;9.40;99.90;;;;;;5034361;28;20037;-69
2023/12/26 04:55:09;;;;;;;1999.90;999.90;;;9.50;99.90;;;;;;5035496;28;20494;-69
2023/12/26 04:57:35;;;;;;;1999.90;999.90;;;9.50;99.90;;;;;;5034947;28;20033;-70
2023/12/26 05:00:01;;;;;;;1999.90;999.90;;;9.40;99.90;;;;;;5035420;28;20072;-69
2023/12/26 05:02:26;;;;;;;1999.90;999.90;;;9.30;99.90;;;;;;5035072;28;20336;-69
2023/12/26 05:04:52;;;;;;;1999.90;999.90;;;9.30;99.90;;;;;;5035316;28;20416;-69
2023/12/26 05:07:18;;;;;;;1999.90;999.90;;;9.20;99.90;;;;;;5035472;28;20040;-69
2023/12/26 05:09:43;;;;;;;1999.90;999.90;;;9.20;99.90;;;;;;5033480;28;20040;-70
2023/12/26 05:12:09;;;;;;;1999.90;999.90;;;9.10;99.90;;;;;;5035444;28;20031;-70
2023/12/26 05:14:35;;;;;;;1999.90;999.90;;;9.10;99.90;;;;;;5033617;28;20048;-69
2023/12/26 05:17:00;;;;;;;1999.90;999.90;;;9.10;99.90;;;;;;5032849;28;20105;-72
2023/12/26 05:19:26;;;;;;;1999.90;999.90;;;9.10;99.90;;;;;;5033367;28;20110;-69
2023/12/26 05:21:52;;;;;;;1999.90;999.90;;;9.00;99.90;;;;;;5033984;28;20029;-70
2023/12/26 05:24:17;;;;;;;1999.90;999.90;;;9.00;99.90;;;;;;5034017;28;20029;-69
2023/12/26 05:26:43;;;;;;;1999.90;999.90;;;9.00;99.90;;;;;;5033170;28;20037;-70
2023/12/26 05:29:10;;;;;;;1999.90;999.90;;;9.00;99.90;;;;;;5032236;28;20040;-69
2023/12/26 05:31:38;;;;;;;1999.90;999.90;;;9.00;99.90;;;;;;5035093;28;20033;-70
2023/12/26 05:34:07;;;;;;;1999.90;999.90;;;9.00;99.90;;;;;;5032261;28;20033;-69
2023/12/26 05:36:33;;;;;;;1999.90;999.90;;;8.90;99.90;;;;;;5029990;28;20108;-69
2023/12/26 05:38:59;;;;;;;1999.90;999.90;;;8.90;99.90;;;;;;5034405;28;20101;-69
2023/12/26 05:41:25;;;;;;;1999.90;999.90;;;8.90;99.90;;;;;;5033877;28;20278;-69
2023/12/26 05:43:51;;;;;;;1999.90;999.90;;;8.90;99.90;;;;;;5033298;28;20029;-70
2023/12/26 05:46:18;;;;;;;1999.90;999.90;;;8.90;99.90;;;;;;5033776;28;20176;-69
2023/12/26 05:48:44;;;;;;;1999.90;999.90;;;8.90;99.90;;;;;;5032040;28;20036;-69
2023/12/26 05:51:10;;;;;;;1999.90;999.90;;;9.00;99.90;;;;;;5031601;28;20045;-69
2023/12/26 05:53:36;;;;;;;1999.90;999.90;;;8.90;99.90;;;;;;5034643;28;20813;-69
2023/12/26 05:56:02;;;;;;;1999.90;999.90;;;9.00;99.90;;;;;;5033575;28;20164;-69
2023/12/26 05:58:28;;;;;;;1999.90;999.90;;;9.00;99.90;;;;;;5034566;28;20105;-69
2023/12/26 06:00:54;;;;;;;1999.90;999.90;;;9.00;99.90;;;;;;5032429;28;20047;-72
2023/12/26 06:03:19;;;;;;;1999.90;999.90;;;9.10;99.90;;;;;;5034454;28;20420;-69
2023/12/26 06:05:46;;;;;;;1999.90;999.90;;;9.10;99.90;;;;;;5033711;28;20349;-69
2023/12/26 06:08:12;;;;;;;;;;;9.00;99.90;;;;;;5034572;28;20041;-69
2023/12/26 06:10:38;;;;;;;1999.90;999.90;;;9.00;99.90;;;;;;5034397;28;19916;-70
2023/12/26 06:13:04;;;;;;;1999.90;999.90;;;9.00;99.90;;;;;;5033393;28;20033;-69
2023/12/26 06:15:30;;;;;;;1999.90;999.90;;;9.00;99.90;;;;;;5034099;28;20041;-69
2023/12/26 06:17:58;;;;;;;1999.90;999.90;;;9.00;99.90;;;;;;5032519;28;20137;-69
2023/12/26 06:20:26;;;;;;;1999.90;999.90;;;8.90;99.90;;;;;;5030765;28;20040;-69
2023/12/26 06:22:55;;;;;;;1999.90;999.90;;;8.90;99.90;;;;;;5029906;28;20017;-69
2023/12/26 06:25:21;;;;;;;1999.90;999.90;;;8.90;99.90;;;;;;5033274;28;20055;-70
2023/12/26 06:27:47;;;;;;;1999.90;999.90;;;8.90;99.90;;;;;;5033988;28;20121;-69
2023/12/26 06:30:13;;;;;;;1999.90;999.90;;;8.90;99.90;;;;;;5032648;28;20140;-69
2023/12/26 06:32:39;;;;;;;1999.90;999.90;;;8.80;99.90;;;;;;5031122;28;20029;-69
2023/12/26 06:35:05;;;;;;;1999.90;999.90;;;8.80;99.90;;;;;;5033852;28;20025;-69
2023/12/26 06:37:30;;;;;;;1999.90;999.90;;;8.80;99.90;;;;;;5033304;28;20037;-69
2023/12/26 06:39:56;;;;;;;1999.90;999.90;;;8.80;99.90;;;;;;5033631;28;20309;-69
2023/12/26 06:42:22;;;;;;;1999.90;999.90;;;8.80;99.90;;;;;;5028983;28;20037;-69
2023/12/26 06:44:48;;;;;;;1999.90;999.90;;;8.70;99.90;;;;;;5033829;28;20029;-70
2023/12/26 06:47:14;;;;;;;1999.90;999.90;;;8.70;99.90;;;;;;5034915;28;20451;-69
2023/12/26 06:49:44;;;;;;;1999.90;999.90;;;8.60;99.90;;;;;;5037295;28;20026;-69
2023/12/26 06:52:12;;;;;;;1999.90;999.90;;;8.60;99.90;;;;;;5038612;28;20040;-69
2023/12/26 06:54:38;;;;;;;1999.90;999.90;;;8.50;99.90;;;;;;5037111;28;20040;-69
2023/12/26 06:57:06;;;;;;;1999.90;999.90;;;8.50;99.90;;;;;;5037994;28;20344;-69
2023/12/26 06:59:31;;;;;;;1999.90;999.90;;;8.40;99.90;;;;;;5036806;28;20032;-70
2023/12/26 07:01:57;;;;;;;1999.90;999.90;;;8.40;99.90;;;;;;5039669;28;20022;-70
2023/12/26 07:04:23;;;;;;;1999.90;999.90;;;8.40;99.90;;;;;;5034540;28;20506;-69
2023/12/26 07:06:48;;;;;;;1999.90;999.90;;;8.50;99.90;;;;;;5037987;28;20073;-69
2023/12/26 07:09:14;;;;;;;1999.90;999.90;;;8.40;99.90;;;;;;5033530;28;20033;-69
2023/12/26 07:11:40;;;;;;;1999.90;999.90;;;8.40;99.90;;;;;;5040917;28;20036;-69
2023/12/26 07:14:06;;;;;;;1999.90;999.90;;;8.40;99.90;;;;;;5032288;28;20421;-69
2023/12/26 07:16:33;;;;;;;1999.90;999.90;;;8.40;99.90;;;;;;5039247;28;20032;-69
2023/12/26 07:18:59;;;;;;;1999.90;999.90;;;8.30;99.90;;;;;;5033445;28;20029;-70
2023/12/26 07:21:24;;;;;;;1999.90;999.90;;;8.30;99.90;;;;;;5038604;28;20024;-69
2023/12/26 07:23:50;;;;;;;1999.90;999.90;;;8.30;99.90;;;;;;5031617;28;20041;-69
2023/12/26 07:26:16;;;;;;;1999.90;999.90;;;8.30;99.90;;;;;;5033119;28;20516;-69
2023/12/26 07:28:41;;;;;;;1999.90;999.90;;;8.30;99.90;;;;;;5030700;28;20060;-69
2023/12/26 07:31:07;;;;;;;1999.90;999.90;;;8.30;99.90;;;;;;5033681;28;20017;-69
2023/12/26 07:33:33;;;;;;;1999.90;999.90;;;8.30;99.90;;;;;;5026442;28;20430;-70
2023/12/26 07:36:00;;;;;;;1999.90;999.90;;;8.30;99.90;;;;;;5021649;28;20041;-69
2023/12/26 07:38:25;;;;;;;1999.90;999.90;;;8.30;99.90;;;;;;5031818;28;20060;-69
2023/12/26 07:40:51;;;;;;;1999.90;999.90;;;8.30;99.90;;;;;;5032798;28;20347;-69
2023/12/26 07:43:17;;;;;;;1999.90;999.90;;;8.20;99.90;;;;;;5029752;28;20463;-69
2023/12/26 07:45:43;;;;;;;1999.90;999.90;;;8.30;99.90;;;;;;5033805;28;20022;-69
2023/12/26 07:48:10;;;;;;;1999.90;999.90;;;8.20;99.90;;;;;;5028570;28;20033;-69
2023/12/26 07:50:36;;;;;;;1999.90;999.90;;;8.20;99.90;;;;;;5024605;28;20420;-70
2023/12/26 07:53:04;;;;;;;1999.90;999.90;;;8.20;99.90;;;;;;5027032;28;20037;-69
2023/12/26 07:55:32;;;;;;;1999.90;999.90;;;8.20;99.90;;;;;;5030959;28;20328;-69
2023/12/26 07:57:58;;;;;;;1999.90;999.90;;;8.20;99.90;;;;;;5024479;28;20014;-69
2023/12/26 08:00:23;;;;;;;1999.90;999.90;;;8.20;99.90;;;;;;5031067;28;20029;-69
2023/12/26 08:02:49;;;;;;;1999.90;999.90;;;8.20;99.90;;;;;;5027672;28;20289;-69
2023/12/26 08:05:15;;;;;;;1999.90;999.90;;;8.20;99.90;;;;;;5028375;28;20022;-69
2023/12/26 08:07:41;;;;;;;1999.90;999.90;;;8.20;99.90;;;;;;5034208;28;20286;-69
2023/12/26 08:10:07;;;;;;;1999.90;999.90;;;8.20;99.90;;;;;;5032998;28;20381;-69
2023/12/26 08:12:33;;;;;;;1999.90;999.90;;;8.20;99.90;;;;;;5032379;28;20026;-69
2023/12/26 08:14:58;;;;;;;1999.90;999.90;;;8.20;99.90;;;;;;5034369;28;20056;-69
2023/12/26 08:17:24;;;;;;;1999.90;999.90;;;8.20;99.90;;;;;;5033506;28;20029;-68
2023/12/26 08:19:50;;;;;;;1999.90;999.90;;;8.30;99.90;;;;;;5032209;28;20028;-68
2023/12/26 08:22:16;;;;;;;1999.90;999.90;;;8.30;99.90;;;;;;5031955;28;20029;-69
2023/12/26 08:24:42;;;;;;;1999.90;999.90;;;8.30;99.90;;;;;;5037323;28;20036;-68
2023/12/26 08:27:07;;;;;;;1999.90;999.90;;;8.30;99.90;;;;;;5035350;28;20331;-71
2023/12/26 08:29:33;;;;;;;1999.90;999.90;;;8.30;99.90;;;;;;5036081;28;20373;-69
2023/12/26 08:31:59;;;;;;;1999.90;999.90;;;8.30;99.90;;;;;;5039043;28;20060;-69
2023/12/26 08:34:25;;;;;;;1999.90;999.90;;;8.30;99.90;;;;;;5033910;28;20022;-72
2023/12/26 08:36:51;;;;;;;1999.90;999.90;;;8.40;99.90;;;;;;5034014;28;20120;-71
2023/12/26 08:39:18;;;;;;;1999.90;999.90;;;8.40;99.90;;;;;;5033227;28;20384;-69
2023/12/26 08:41:43;;;;;;;1999.90;999.90;;;8.50;99.90;;;;;;5030458;28;20045;-69
2023/12/26 08:44:10;;;;;;;1999.90;999.90;;;8.50;99.90;;;;;;5034189;28;20340;-69
2023/12/26 08:46:35;;;;;;;1999.90;999.90;;;8.50;99.90;;;;;;5036936;28;20478;-69
2023/12/26 08:49:03;;;;;;;1999.90;999.90;;;8.50;99.90;;;;;;5033183;28;20037;-69
2023/12/26 08:51:28;;;;;;;1999.90;999.90;;;8.50;99.90;;;;;;5029359;28;20332;-71
2023/12/26 08:53:55;;;;;;;1999.90;999.90;;;8.50;99.90;;;;;;5029972;28;20029;-69
2023/12/26 08:56:24;;;;;;;1999.90;999.90;;;8.50;99.90;;;;;;5032984;28;20425;-69
2023/12/26 08:58:49;;;;;;;1999.90;999.90;;;8.60;99.90;;;;;;5034367;28;20048;-69
2023/12/26 09:01:15;;;;;;;1999.90;999.90;;;8.70;99.90;;;;;;5036206;28;20427;-69
2023/12/26 09:03:41;;;;;;;1999.90;999.90;;;8.80;99.90;;;;;;5035437;28;20025;-69
2023/12/26 09:06:10;;;;;;;1999.90;999.90;;;8.80;99.90;;;;;;5043345;28;20108;-69
2023/12/26 09:08:36;;;;;;;1999.90;999.90;;;8.80;99.90;;;;;;5040504;28;20032;-69
2023/12/26 09:11:03;;;;;;;1999.90;999.90;;;8.90;99.90;;;;;;5041808;28;20022;-69
2023/12/26 09:13:29;;;;;;;1999.90;999.90;;;8.90;99.90;;;;;;5040695;28;20332;-69
2023/12/26 09:15:55;;;;;;;1999.90;999.90;;;8.90;99.90;;;;;;5036268;28;20033;-72
2023/12/26 09:18:21;;;;;;;1999.90;999.90;;;9.00;99.90;;;;;;5026599;28;20440;-70
2023/12/26 09:20:47;;;;;;;1999.90;999.90;;;9.10;99.90;;;;;;5037136;28;20025;-69
2023/12/26 09:23:13;;;;;;;1999.90;999.90;;;9.10;99.90;;;;;;5040764;28;20076;-69
2023/12/26 09:25:39;;;;;;;1999.90;999.90;;;9.20;99.90;;;;;;5043973;28;20032;-69
2023/12/26 09:28:08;;;;;;;1999.90;999.90;;;9.40;99.90;;;;;;5036928;28;20033;-68
2023/12/26 09:30:34;;;;;;;1999.90;999.90;;;9.50;99.90;;;;;;5042170;28;20033;-69
2023/12/26 09:33:00;;;;;;;1999.90;999.90;;;9.60;99.90;;;;;;5040174;28;20312;-73
2023/12/26 09:35:25;;;;;;;1999.90;999.90;;;9.60;99.90;;;;;;5043913;28;20076;-69
2023/12/26 09:37:51;;;;;;;1999.90;999.90;;;9.60;99.90;;;;;;5040214;28;20044;-69
2023/12/26 09:40:18;;;;;;;1999.90;999.90;;;9.60;99.90;;;;;;5038092;28;20030;-69
2023/12/26 09:42:44;;;;;;;1999.90;999.90;;;9.60;99.90;;;;;;5039251;28;20048;-69
2023/12/26 09:45:11;;;;;;;1999.90;999.90;;;9.50;99.90;;;;;;5042656;28;20336;-69
2023/12/26 09:47:41;;;;;;;;;;;9.60;99.90;;;;;;5036212;28;20065;-69
2023/12/26 09:50:08;;;;;;;1999.90;999.90;;;9.60;99.90;;;;;;5039991;28;19920;-68
2023/12/26 09:52:38;;;;;;;1999.90;999.90;;;9.60;99.90;;;;;;5035189;28;20065;-69
2023/12/26 09:55:04;;;;;;;1999.90;999.90;;;9.60;99.90;;;;;;5039776;28;20037;-69
2023/12/26 09:57:30;;;;;;;1999.90;999.90;;;9.60;99.90;;;;;;5036247;28;20037;-69
2023/12/26 09:59:57;;;;;;;1999.90;999.90;;;9.60;99.90;;;;;;5040800;28;20040;-69
2023/12/26 10:02:23;;;;;;;1999.90;999.90;;;9.70;99.90;;;;;;5034669;28;20586;-69
2023/12/26 10:04:49;;;;;;;1999.90;999.90;;;9.90;99.90;;;;;;5030637;28;20029;-69
2023/12/26 10:07:18;;;;;;;1999.90;999.90;;;9.90;99.90;;;;;;5034467;28;20512;-70
2023/12/26 10:09:44;;;;;;;1999.90;999.90;;;9.90;99.90;;;;;;5035420;28;20033;-69
2023/12/26 10:12:10;;;;;;;1999.90;999.90;;;10.00;99.90;;;;;;5033315;28;20025;-69
2023/12/26 10:14:36;;;;;;;1999.90;999.90;;;10.10;99.90;;;;;;5036558;28;20036;-70
2023/12/26 10:17:03;;;;;;;1999.90;999.90;;;10.10;99.90;;;;;;5039295;28;20029;-70
2023/12/26 10:19:29;;;;;;;;;;;10.00;99.90;;;;;;5036785;28;20320;-69
2023/12/26 10:21:54;;;;;;;1999.90;999.90;;;10.00;99.90;;;;;;5037434;28;19909;-69
2023/12/26 10:24:21;;;;;;;1999.90;999.90;;;10.00;99.90;;;;;;5032380;28;20080;-70
2023/12/26 10:26:47;;;;;;;1999.90;999.90;;;10.00;99.90;;;;;;5031358;28;20031;-70
2023/12/26 10:29:14;;;;;;;1999.90;999.90;;;10.00;99.90;;;;;;5029712;28;20033;-69
2023/12/26 10:31:41;;;;;;;1999.90;999.90;;;9.90;99.90;;;;;;5045423;28;20434;-70
2023/12/26 10:34:19;;;;;;;1999.90;999.90;;;9.90;99.90;;;;;;5042386;28;20108;-69
2023/12/26 10:36:46;;;;;;;1999.90;999.90;;;9.90;99.90;;;;;;5036032;28;20036;-70
2023/12/26 10:39:12;;;;;;;1999.90;999.90;;;9.90;99.90;;;;;;5034306;28;20312;-72
2023/12/26 10:41:47;;;;;;;1999.90;999.90;;;10.00;99.90;;;;;;5039738;28;20045;-69
2023/12/26 10:44:17;;;;;;;1999.90;999.90;;;10.00;99.90;;;;;;5040796;28;20073;-69
2023/12/26 10:46:43;;;;;;;1999.90;999.90;;;10.00;99.90;;;;;;5038394;28;20033;-69
2023/12/26 10:49:20;;;;;;;1999.90;999.90;;;10.00;99.90;;;;;;5029737;28;20033;-70
2023/12/26 10:51:48;;;;;;;1999.90;999.90;;;9.90;99.90;;;;;;5035681;28;20091;-69
2023/12/26 10:54:24;;;;;;;1999.90;999.90;;;9.90;99.90;;;;;;5038609;28;20425;-69
2023/12/26 10:56:50;;;;;;;1999.90;999.90;;;9.90;99.90;;;;;;5032867;28;20480;-70
2023/12/26 10:59:16;;;;;;;1999.90;999.90;;;9.90;99.90;;;;;;5033251;28;20075;-68
2023/12/26 11:01:43;;;;;;;1999.90;999.90;;;9.90;99.90;;;;;;5041078;28;20032;-69
2023/12/26 11:04:09;;;;;;;;;;;10.00;99.90;;;;;;5034616;28;20080;-69
2023/12/26 11:06:36;;;;;;;1999.90;999.90;;;10.00;99.90;;;;;;5030370;28;19996;-70
2023/12/26 11:09:02;;;;;;;1999.90;999.90;;;9.90;99.90;;;;;;5026585;28;20037;-72
2023/12/26 11:11:27;;;;;;;1999.90;999.90;;;10.00;99.90;;;;;;5029786;28;20030;-69
2023/12/26 11:13:54;;;;;;;1999.90;999.90;;;10.00;99.90;;;;;;5037395;28;20036;-69
2023/12/26 11:16:20;;;;;;;;;;;10.00;99.90;;;;;;5031344;28;20029;-69
2023/12/26 11:18:46;;;;;;;1999.90;999.90;;;10.00;99.90;;;;;;5033897;28;20181;-69
2023/12/26 11:21:14;;;;;;;1999.90;999.90;;;10.00;99.90;;;;;;5037116;28;20031;-69
2023/12/26 11:23:41;;;;;;;1999.90;999.90;;;10.10;99.90;;;;;;5032155;28;20359;-69
2023/12/26 11:26:08;;;;;;;1999.90;999.90;;;10.10;99.90;;;;;;5032113;28;20032;-69
2023/12/26 11:28:36;;;;;;;1999.90;999.90;;;10.10;99.90;;;;;;5036253;28;20654;-71
2023/12/26 11:31:01;;;;;;;1999.90;999.90;;;10.10;99.90;;;;;;5038009;28;20116;-70
2023/12/26 11:33:27;;;;;;;1999.90;999.90;;;10.10;99.90;;;;;;5034681;28;20104;-69
2023/12/26 11:35:53;;;;;;;1999.90;999.90;;;10.10;99.90;;;;;;5044890;28;20420;-69
2023/12/26 11:38:19;;;;;;;1999.90;999.90;;;10.10;99.90;;;;;;5031795;28;20412;-70
2023/12/26 11:40:45;;;;;;;1999.90;999.90;;;10.00;99.90;;;;;;5043126;28;20025;-69
2023/12/26 11:43:13;;;;;;;1999.90;999.90;;;10.10;99.90;;;;;;5043935;28;20088;-69
2023/12/26 11:45:39;;;;;;;1999.90;999.90;;;10.00;99.90;;;;;;5040906;28;21808;-69
2023/12/26 11:48:04;;;;;;;1999.90;999.90;;;10.00;99.90;;;;;;5031632;28;20052;-69
2023/12/26 11:50:30;;;;;;;1999.90;999.90;;;10.00;99.90;;;;;;5038356;28;20053;-69
2023/12/26 11:52:56;;;;;;;1999.90;999.90;;;10.00;99.90;;;;;;5046387;28;20102;-69
2023/12/26 11:55:22;;;;;;;1999.90;999.90;;;9.90;99.90;;;;;;5032267;28;20029;-70
2023/12/26 11:57:47;;;;;;;1999.90;999.90;;;10.00;99.90;;;;;;5044970;28;20032;-69
2023/12/26 12:00:13;;;;;;;1999.90;999.90;;;10.00;99.90;;;;;;5036903;28;20319;-69